sensor_id;sensor_type;location;lat;lon;timestamp;P1;durP1;ratioP1;P2;durP2;ratioP2
211;SDS011;16228;48.800;9.002;2022-11-09T00:00:44;4.00;;;3.60;;
211;SDS011;16228;48.800;9.002;2022-11-09T00:03:11;4.20;;;3.77;;
211;SDS011;16228;48.800;9.002;2022-11-09T00:05:39;5.53;;;3.13;;
211;SDS011;16228;48.800;9.002;2022-11-09T00:08:07;4.10;;;3.03;;
211;SDS011;16228;48.800;9.002;2022-11-09T00:10:35;4.40;;;3.40;;
211;SDS011;16228;48.800;9.002;2022-11-09T00:13:03;4.00;;;3.27;;
211;SDS011;16228;48.800;9.002;2022-11-09T00:15:30;2.83;;;2.53;;
211;SDS011;16228;48.800;9.002;2022-11-09T00:17:59;3.57;;;2.63;;
211;SDS011;16228;48.800;9.002;2022-11-09T00:20:26;3.20;;;2.73;;
211;SDS011;16228;48.800;9.002;2022-11-09T00:22:55;3.53;;;3.10;;
211;SDS011;16228;48.800;9.002;2022-11-09T00:25:22;4.17;;;2.87;;
211;SDS011;16228;48.800;9.002;2022-11-09T00:27:49;4.23;;;2.43;;
211;SDS011;16228;48.800;9.002;2022-11-09T00:30:16;3.73;;;2.70;;
211;SDS011;16228;48.800;9.002;2022-11-09T00:32:44;3.70;;;2.53;;
211;SDS011;16228;48.800;9.002;2022-11-09T00:35:11;5.23;;;3.27;;
211;SDS011;16228;48.800;9.002;2022-11-09T00:37:38;5.73;;;2.70;;
211;SDS011;16228;48.800;9.002;2022-11-09T00:40:07;4.30;;;2.50;;
211;SDS011;16228;48.800;9.002;2022-11-09T00:42:35;3.23;;;2.40;;
211;SDS011;16228;48.800;9.002;2022-11-09T00:45:02;4.63;;;2.80;;
211;SDS011;16228;48.800;9.002;2022-11-09T00:47:30;2.93;;;2.60;;
211;SDS011;16228;48.800;9.002;2022-11-09T00:49:57;4.83;;;2.60;;
211;SDS011;16228;48.800;9.002;2022-11-09T00:52:24;3.10;;;2.80;;
211;SDS011;16228;48.800;9.002;2022-11-09T00:54:51;3.47;;;2.80;;
211;SDS011;16228;48.800;9.002;2022-11-09T00:57:19;4.37;;;2.23;;
211;SDS011;16228;48.800;9.002;2022-11-09T00:59:46;3.37;;;2.40;;
211;SDS011;16228;48.800;9.002;2022-11-09T01:02:13;4.80;;;3.07;;
211;SDS011;16228;48.800;9.002;2022-11-09T01:04:40;3.43;;;2.60;;
211;SDS011;16228;48.800;9.002;2022-11-09T01:07:07;4.50;;;2.60;;
211;SDS011;16228;48.800;9.002;2022-11-09T01:09:34;3.10;;;2.77;;
211;SDS011;16228;48.800;9.002;2022-11-09T01:12:01;4.83;;;3.10;;
211;SDS011;16228;48.800;9.002;2022-11-09T01:14:30;2.97;;;2.20;;
211;SDS011;16228;48.800;9.002;2022-11-09T01:16:57;4.70;;;3.03;;
211;SDS011;16228;48.800;9.002;2022-11-09T01:19:24;6.43;;;3.03;;
211;SDS011;16228;48.800;9.002;2022-11-09T01:21:51;3.73;;;2.70;;
211;SDS011;16228;48.800;9.002;2022-11-09T01:24:18;3.73;;;3.20;;
211;SDS011;16228;48.800;9.002;2022-11-09T01:26:45;2.90;;;2.37;;
211;SDS011;16228;48.800;9.002;2022-11-09T01:29:12;4.07;;;2.43;;
211;SDS011;16228;48.800;9.002;2022-11-09T01:31:40;3.40;;;2.60;;
211;SDS011;16228;48.800;9.002;2022-11-09T01:34:07;5.07;;;2.60;;
211;SDS011;16228;48.800;9.002;2022-11-09T01:36:34;3.60;;;2.33;;
211;SDS011;16228;48.800;9.002;2022-11-09T01:39:01;3.43;;;2.70;;
211;SDS011;16228;48.800;9.002;2022-11-09T01:41:28;3.63;;;2.70;;
211;SDS011;16228;48.800;9.002;2022-11-09T01:44:02;3.67;;;2.70;;
211;SDS011;16228;48.800;9.002;2022-11-09T01:46:32;3.30;;;2.50;;
211;SDS011;16228;48.800;9.002;2022-11-09T01:49:04;2.57;;;2.37;;
211;SDS011;16228;48.800;9.002;2022-11-09T01:51:37;3.37;;;2.90;;
211;SDS011;16228;48.800;9.002;2022-11-09T01:54:09;5.03;;;2.80;;
211;SDS011;16228;48.800;9.002;2022-11-09T01:56:41;4.63;;;2.93;;
211;SDS011;16228;48.800;9.002;2022-11-09T01:59:10;3.53;;;2.63;;
211;SDS011;16228;48.800;9.002;2022-11-09T02:01:40;2.73;;;2.50;;
211;SDS011;16228;48.800;9.002;2022-11-09T02:04:11;3.27;;;2.33;;
211;SDS011;16228;48.800;9.002;2022-11-09T02:06:41;3.63;;;2.73;;
211;SDS011;16228;48.800;9.002;2022-11-09T02:09:11;3.57;;;2.97;;
211;SDS011;16228;48.800;9.002;2022-11-09T02:11:45;4.43;;;2.80;;
211;SDS011;16228;48.800;9.002;2022-11-09T02:14:12;4.03;;;3.00;;
211;SDS011;16228;48.800;9.002;2022-11-09T02:16:40;3.00;;;2.37;;
211;SDS011;16228;48.800;9.002;2022-11-09T02:19:07;4.43;;;2.60;;
211;SDS011;16228;48.800;9.002;2022-11-09T02:21:37;3.83;;;2.60;;
211;SDS011;16228;48.800;9.002;2022-11-09T02:24:05;3.10;;;2.67;;
211;SDS011;16228;48.800;9.002;2022-11-09T02:26:33;4.10;;;2.63;;
211;SDS011;16228;48.800;9.002;2022-11-09T02:29:05;5.43;;;2.50;;
211;SDS011;16228;48.800;9.002;2022-11-09T02:31:36;3.33;;;2.80;;
211;SDS011;16228;48.800;9.002;2022-11-09T02:34:05;3.73;;;2.60;;
211;SDS011;16228;48.800;9.002;2022-11-09T02:36:34;2.70;;;2.40;;
211;SDS011;16228;48.800;9.002;2022-11-09T02:39:03;2.77;;;2.50;;
211;SDS011;16228;48.800;9.002;2022-11-09T02:41:30;3.33;;;2.63;;
211;SDS011;16228;48.800;9.002;2022-11-09T02:43:59;3.17;;;2.50;;
211;SDS011;16228;48.800;9.002;2022-11-09T02:46:29;3.20;;;2.20;;
211;SDS011;16228;48.800;9.002;2022-11-09T02:48:58;3.10;;;2.47;;
211;SDS011;16228;48.800;9.002;2022-11-09T02:51:25;3.80;;;2.53;;
211;SDS011;16228;48.800;9.002;2022-11-09T02:53:52;4.80;;;2.93;;
211;SDS011;16228;48.800;9.002;2022-11-09T02:56:20;2.83;;;2.33;;
211;SDS011;16228;48.800;9.002;2022-11-09T02:58:47;5.30;;;2.87;;
211;SDS011;16228;48.800;9.002;2022-11-09T03:01:14;3.30;;;2.83;;
211;SDS011;16228;48.800;9.002;2022-11-09T03:03:41;3.70;;;2.63;;
211;SDS011;16228;48.800;9.002;2022-11-09T03:06:09;2.93;;;2.40;;
211;SDS011;16228;48.800;9.002;2022-11-09T03:08:36;3.20;;;2.40;;
211;SDS011;16228;48.800;9.002;2022-11-09T03:11:03;3.67;;;2.50;;
211;SDS011;16228;48.800;9.002;2022-11-09T03:13:32;3.87;;;2.83;;
211;SDS011;16228;48.800;9.002;2022-11-09T03:16:02;3.10;;;2.80;;
211;SDS011;16228;48.800;9.002;2022-11-09T03:18:30;4.60;;;3.60;;
211;SDS011;16228;48.800;9.002;2022-11-09T03:20:59;4.93;;;3.87;;
211;SDS011;16228;48.800;9.002;2022-11-09T03:23:27;3.67;;;3.37;;
211;SDS011;16228;48.800;9.002;2022-11-09T03:25:54;6.10;;;4.10;;
211;SDS011;16228;48.800;9.002;2022-11-09T03:28:21;4.73;;;4.23;;
211;SDS011;16228;48.800;9.002;2022-11-09T03:30:49;3.93;;;3.63;;
211;SDS011;16228;48.800;9.002;2022-11-09T03:33:16;3.90;;;3.60;;
211;SDS011;16228;48.800;9.002;2022-11-09T03:35:43;5.80;;;4.40;;
211;SDS011;16228;48.800;9.002;2022-11-09T03:38:10;4.10;;;3.77;;
211;SDS011;16228;48.800;9.002;2022-11-09T03:40:37;3.77;;;3.47;;
211;SDS011;16228;48.800;9.002;2022-11-09T03:43:04;7.03;;;4.63;;
211;SDS011;16228;48.800;9.002;2022-11-09T03:45:31;4.47;;;3.97;;
211;SDS011;16228;48.800;9.002;2022-11-09T03:48:00;5.00;;;4.50;;
211;SDS011;16228;48.800;9.002;2022-11-09T03:50:28;4.30;;;3.80;;
211;SDS011;16228;48.800;9.002;2022-11-09T03:52:56;6.67;;;4.73;;
211;SDS011;16228;48.800;9.002;2022-11-09T03:55:24;4.97;;;4.40;;
211;SDS011;16228;48.800;9.002;2022-11-09T03:57:51;7.67;;;5.50;;
211;SDS011;16228;48.800;9.002;2022-11-09T04:00:19;5.07;;;3.80;;
211;SDS011;16228;48.800;9.002;2022-11-09T04:02:47;5.57;;;4.27;;
211;SDS011;16228;48.800;9.002;2022-11-09T04:05:15;4.27;;;3.87;;
211;SDS011;16228;48.800;9.002;2022-11-09T04:07:46;4.43;;;4.03;;
211;SDS011;16228;48.800;9.002;2022-11-09T04:10:14;7.63;;;4.63;;
211;SDS011;16228;48.800;9.002;2022-11-09T04:12:42;5.00;;;4.13;;
211;SDS011;16228;48.800;9.002;2022-11-09T04:15:10;4.83;;;4.43;;
211;SDS011;16228;48.800;9.002;2022-11-09T04:17:37;7.47;;;4.53;;
211;SDS011;16228;48.800;9.002;2022-11-09T04:20:05;5.70;;;4.60;;
211;SDS011;16228;48.800;9.002;2022-11-09T04:22:35;4.77;;;4.23;;
211;SDS011;16228;48.800;9.002;2022-11-09T04:25:02;5.80;;;3.80;;
211;SDS011;16228;48.800;9.002;2022-11-09T04:27:30;5.37;;;4.20;;
211;SDS011;16228;48.800;9.002;2022-11-09T04:29:57;6.97;;;4.07;;
211;SDS011;16228;48.800;9.002;2022-11-09T04:32:24;4.10;;;3.70;;
211;SDS011;16228;48.800;9.002;2022-11-09T04:34:51;4.97;;;4.40;;
211;SDS011;16228;48.800;9.002;2022-11-09T04:37:18;5.87;;;4.03;;
211;SDS011;16228;48.800;9.002;2022-11-09T04:39:46;3.93;;;3.47;;
211;SDS011;16228;48.800;9.002;2022-11-09T04:42:13;5.03;;;4.00;;
211;SDS011;16228;48.800;9.002;2022-11-09T04:44:41;4.77;;;3.73;;
211;SDS011;16228;48.800;9.002;2022-11-09T04:47:08;5.63;;;4.50;;
211;SDS011;16228;48.800;9.002;2022-11-09T04:49:35;6.03;;;4.20;;
211;SDS011;16228;48.800;9.002;2022-11-09T04:52:02;5.53;;;4.20;;
211;SDS011;16228;48.800;9.002;2022-11-09T04:54:29;6.23;;;4.30;;
211;SDS011;16228;48.800;9.002;2022-11-09T04:56:57;5.00;;;4.50;;
211;SDS011;16228;48.800;9.002;2022-11-09T04:59:24;5.50;;;4.33;;
211;SDS011;16228;48.800;9.002;2022-11-09T05:01:51;5.97;;;4.43;;
211;SDS011;16228;48.800;9.002;2022-11-09T05:04:18;5.00;;;4.60;;
211;SDS011;16228;48.800;9.002;2022-11-09T05:06:45;8.27;;;5.10;;
211;SDS011;16228;48.800;9.002;2022-11-09T05:09:12;4.37;;;3.97;;
211;SDS011;16228;48.800;9.002;2022-11-09T05:11:39;7.57;;;5.80;;
211;SDS011;16228;48.800;9.002;2022-11-09T05:14:07;4.77;;;4.37;;
211;SDS011;16228;48.800;9.002;2022-11-09T05:16:34;4.47;;;4.07;;
211;SDS011;16228;48.800;9.002;2022-11-09T05:19:01;6.10;;;4.83;;
211;SDS011;16228;48.800;9.002;2022-11-09T05:21:28;8.10;;;4.47;;
211;SDS011;16228;48.800;9.002;2022-11-09T05:23:55;5.60;;;4.70;;
211;SDS011;16228;48.800;9.002;2022-11-09T05:26:25;5.27;;;4.50;;
211;SDS011;16228;48.800;9.002;2022-11-09T05:28:52;4.37;;;3.97;;
211;SDS011;16228;48.800;9.002;2022-11-09T05:31:21;5.30;;;4.47;;
211;SDS011;16228;48.800;9.002;2022-11-09T05:33:48;6.03;;;4.77;;
211;SDS011;16228;48.800;9.002;2022-11-09T05:36:16;5.73;;;4.07;;
211;SDS011;16228;48.800;9.002;2022-11-09T05:38:43;4.27;;;3.87;;
211;SDS011;16228;48.800;9.002;2022-11-09T05:41:11;4.50;;;4.10;;
211;SDS011;16228;48.800;9.002;2022-11-09T05:43:38;4.87;;;4.00;;
211;SDS011;16228;48.800;9.002;2022-11-09T05:46:05;8.00;;;6.57;;
211;SDS011;16228;48.800;9.002;2022-11-09T05:48:34;5.07;;;4.57;;
211;SDS011;16228;48.800;9.002;2022-11-09T05:51:02;3.77;;;3.07;;
211;SDS011;16228;48.800;9.002;2022-11-09T05:53:29;7.17;;;5.20;;
211;SDS011;16228;48.800;9.002;2022-11-09T05:56:00;7.40;;;5.83;;
211;SDS011;16228;48.800;9.002;2022-11-09T05:58:28;4.20;;;3.50;;
211;SDS011;16228;48.800;9.002;2022-11-09T06:00:57;5.27;;;3.93;;
211;SDS011;16228;48.800;9.002;2022-11-09T06:03:25;3.67;;;3.37;;
211;SDS011;16228;48.800;9.002;2022-11-09T06:05:53;5.37;;;3.67;;
211;SDS011;16228;48.800;9.002;2022-11-09T06:08:20;4.40;;;3.47;;
211;SDS011;16228;48.800;9.002;2022-11-09T06:10:47;4.03;;;3.60;;
211;SDS011;16228;48.800;9.002;2022-11-09T06:13:14;4.50;;;4.10;;
211;SDS011;16228;48.800;9.002;2022-11-09T06:15:41;4.83;;;3.20;;
211;SDS011;16228;48.800;9.002;2022-11-09T06:18:08;7.97;;;5.93;;
211;SDS011;16228;48.800;9.002;2022-11-09T06:20:35;5.73;;;4.73;;
211;SDS011;16228;48.800;9.002;2022-11-09T06:23:03;6.07;;;4.13;;
211;SDS011;16228;48.800;9.002;2022-11-09T06:25:31;4.93;;;3.53;;
211;SDS011;16228;48.800;9.002;2022-11-09T06:27:58;7.07;;;4.60;;
211;SDS011;16228;48.800;9.002;2022-11-09T06:30:25;5.67;;;4.50;;
211;SDS011;16228;48.800;9.002;2022-11-09T06:32:56;6.10;;;4.97;;
211;SDS011;16228;48.800;9.002;2022-11-09T06:35:24;4.43;;;3.30;;
211;SDS011;16228;48.800;9.002;2022-11-09T06:37:53;8.27;;;4.27;;
211;SDS011;16228;48.800;9.002;2022-11-09T06:40:22;4.57;;;4.17;;
211;SDS011;16228;48.800;9.002;2022-11-09T06:42:49;4.63;;;3.37;;
211;SDS011;16228;48.800;9.002;2022-11-09T06:45:16;5.30;;;3.50;;
211;SDS011;16228;48.800;9.002;2022-11-09T06:47:48;4.70;;;3.53;;
211;SDS011;16228;48.800;9.002;2022-11-09T06:50:15;3.73;;;3.43;;
211;SDS011;16228;48.800;9.002;2022-11-09T06:52:42;6.73;;;3.37;;
211;SDS011;16228;48.800;9.002;2022-11-09T06:55:09;3.40;;;3.10;;
211;SDS011;16228;48.800;9.002;2022-11-09T06:57:37;3.47;;;3.13;;
211;SDS011;16228;48.800;9.002;2022-11-09T07:00:05;5.50;;;3.60;;
211;SDS011;16228;48.800;9.002;2022-11-09T07:02:33;5.87;;;3.93;;
211;SDS011;16228;48.800;9.002;2022-11-09T07:05:00;4.73;;;4.23;;
211;SDS011;16228;48.800;9.002;2022-11-09T07:07:27;4.43;;;3.53;;
211;SDS011;16228;48.800;9.002;2022-11-09T07:09:54;6.73;;;4.37;;
211;SDS011;16228;48.800;9.002;2022-11-09T07:12:22;4.33;;;3.93;;
211;SDS011;16228;48.800;9.002;2022-11-09T07:14:50;6.10;;;4.67;;
211;SDS011;16228;48.800;9.002;2022-11-09T07:17:17;3.50;;;3.10;;
211;SDS011;16228;48.800;9.002;2022-11-09T07:19:45;5.37;;;4.07;;
211;SDS011;16228;48.800;9.002;2022-11-09T07:22:12;4.20;;;3.80;;
211;SDS011;16228;48.800;9.002;2022-11-09T07:24:39;5.73;;;4.23;;
211;SDS011;16228;48.800;9.002;2022-11-09T07:27:06;4.30;;;3.87;;
211;SDS011;16228;48.800;9.002;2022-11-09T07:29:33;3.70;;;3.40;;
211;SDS011;16228;48.800;9.002;2022-11-09T07:32:01;4.87;;;3.97;;
211;SDS011;16228;48.800;9.002;2022-11-09T07:34:29;3.93;;;3.63;;
211;SDS011;16228;48.800;9.002;2022-11-09T07:36:56;4.87;;;3.83;;
211;SDS011;16228;48.800;9.002;2022-11-09T07:39:23;3.70;;;3.40;;
211;SDS011;16228;48.800;9.002;2022-11-09T07:41:50;3.80;;;3.50;;
211;SDS011;16228;48.800;9.002;2022-11-09T07:44:16;4.23;;;3.83;;
211;SDS011;16228;48.800;9.002;2022-11-09T07:46:45;5.57;;;5.07;;
211;SDS011;16228;48.800;9.002;2022-11-09T07:49:14;4.17;;;3.77;;
211;SDS011;16228;48.800;9.002;2022-11-09T07:51:42;4.73;;;4.07;;
211;SDS011;16228;48.800;9.002;2022-11-09T07:54:10;6.60;;;4.80;;
211;SDS011;16228;48.800;9.002;2022-11-09T07:56:37;6.60;;;5.67;;
211;SDS011;16228;48.800;9.002;2022-11-09T07:59:04;4.70;;;4.20;;
211;SDS011;16228;48.800;9.002;2022-11-09T08:01:31;4.67;;;4.27;;
211;SDS011;16228;48.800;9.002;2022-11-09T08:03:58;3.27;;;2.97;;
211;SDS011;16228;48.800;9.002;2022-11-09T08:06:27;4.27;;;3.30;;
211;SDS011;16228;48.800;9.002;2022-11-09T08:08:54;4.20;;;3.77;;
211;SDS011;16228;48.800;9.002;2022-11-09T08:11:21;3.17;;;2.87;;
211;SDS011;16228;48.800;9.002;2022-11-09T08:13:49;4.03;;;3.30;;
211;SDS011;16228;48.800;9.002;2022-11-09T08:16:16;4.50;;;2.83;;
211;SDS011;16228;48.800;9.002;2022-11-09T08:18:43;3.47;;;2.73;;
211;SDS011;16228;48.800;9.002;2022-11-09T08:21:10;3.77;;;3.03;;
211;SDS011;16228;48.800;9.002;2022-11-09T08:23:39;3.33;;;2.53;;
211;SDS011;16228;48.800;9.002;2022-11-09T08:26:06;2.50;;;2.27;;
211;SDS011;16228;48.800;9.002;2022-11-09T08:28:33;4.20;;;2.60;;
211;SDS011;16228;48.800;9.002;2022-11-09T08:31:01;3.50;;;2.60;;
211;SDS011;16228;48.800;9.002;2022-11-09T08:33:30;3.30;;;3.00;;
211;SDS011;16228;48.800;9.002;2022-11-09T08:36:00;4.77;;;3.10;;
211;SDS011;16228;48.800;9.002;2022-11-09T08:38:27;5.57;;;2.70;;
211;SDS011;16228;48.800;9.002;2022-11-09T08:40:56;3.83;;;2.90;;
211;SDS011;16228;48.800;9.002;2022-11-09T08:43:24;3.63;;;2.10;;
211;SDS011;16228;48.800;9.002;2022-11-09T08:45:51;3.03;;;2.23;;
211;SDS011;16228;48.800;9.002;2022-11-09T08:48:18;2.73;;;1.80;;
211;SDS011;16228;48.800;9.002;2022-11-09T08:50:50;2.63;;;2.03;;
211;SDS011;16228;48.800;9.002;2022-11-09T08:53:17;2.33;;;2.13;;
211;SDS011;16228;48.800;9.002;2022-11-09T08:55:44;5.03;;;2.20;;
211;SDS011;16228;48.800;9.002;2022-11-09T08:58:12;3.23;;;2.10;;
211;SDS011;16228;48.800;9.002;2022-11-09T09:00:40;1.63;;;1.23;;
211;SDS011;16228;48.800;9.002;2022-11-09T09:03:07;2.47;;;1.93;;
211;SDS011;16228;48.800;9.002;2022-11-09T09:05:34;2.97;;;2.30;;
211;SDS011;16228;48.800;9.002;2022-11-09T09:08:02;4.00;;;2.13;;
211;SDS011;16228;48.800;9.002;2022-11-09T09:10:31;4.63;;;2.50;;
211;SDS011;16228;48.800;9.002;2022-11-09T09:12:59;4.53;;;2.70;;
211;SDS011;16228;48.800;9.002;2022-11-09T09:15:28;5.17;;;2.33;;
211;SDS011;16228;48.800;9.002;2022-11-09T09:17:55;2.37;;;2.00;;
211;SDS011;16228;48.800;9.002;2022-11-09T09:20:24;2.50;;;1.83;;
211;SDS011;16228;48.800;9.002;2022-11-09T09:22:51;1.40;;;1.23;;
211;SDS011;16228;48.800;9.002;2022-11-09T09:25:18;1.57;;;1.47;;
211;SDS011;16228;48.800;9.002;2022-11-09T09:27:46;3.33;;;1.50;;
211;SDS011;16228;48.800;9.002;2022-11-09T09:30:14;2.40;;;1.40;;
211;SDS011;16228;48.800;9.002;2022-11-09T09:32:42;1.97;;;1.63;;
211;SDS011;16228;48.800;9.002;2022-11-09T09:35:10;1.83;;;1.40;;
211;SDS011;16228;48.800;9.002;2022-11-09T09:37:37;2.83;;;2.60;;
211;SDS011;16228;48.800;9.002;2022-11-09T09:40:05;2.47;;;1.30;;
211;SDS011;16228;48.800;9.002;2022-11-09T09:42:34;1.10;;;1.00;;
211;SDS011;16228;48.800;9.002;2022-11-09T09:45:03;1.67;;;1.03;;
211;SDS011;16228;48.800;9.002;2022-11-09T09:47:41;0.77;;;0.77;;
211;SDS011;16228;48.800;9.002;2022-11-09T09:50:16;1.00;;;0.80;;
211;SDS011;16228;48.800;9.002;2022-11-09T09:52:48;1.57;;;0.90;;
211;SDS011;16228;48.800;9.002;2022-11-09T09:55:22;1.23;;;0.70;;
211;SDS011;16228;48.800;9.002;2022-11-09T09:57:57;1.50;;;0.90;;
211;SDS011;16228;48.800;9.002;2022-11-09T10:00:29;2.63;;;1.30;;
211;SDS011;16228;48.800;9.002;2022-11-09T10:03:00;1.20;;;1.10;;
211;SDS011;16228;48.800;9.002;2022-11-09T10:05:36;1.53;;;1.23;;
211;SDS011;16228;48.800;9.002;2022-11-09T10:08:12;2.43;;;1.27;;
211;SDS011;16228;48.800;9.002;2022-11-09T10:10:49;1.43;;;1.10;;
211;SDS011;16228;48.800;9.002;2022-11-09T10:13:34;1.50;;;1.00;;
211;SDS011;16228;48.800;9.002;2022-11-09T10:16:18;1.67;;;0.93;;
211;SDS011;16228;48.800;9.002;2022-11-09T10:18:57;1.23;;;1.07;;
211;SDS011;16228;48.800;9.002;2022-11-09T10:21:42;1.40;;;1.30;;
211;SDS011;16228;48.800;9.002;2022-11-09T10:24:17;1.80;;;1.57;;
211;SDS011;16228;48.800;9.002;2022-11-09T10:26:53;2.80;;;1.60;;
211;SDS011;16228;48.800;9.002;2022-11-09T10:29:23;3.50;;;1.70;;
211;SDS011;16228;48.800;9.002;2022-11-09T10:31:52;1.53;;;1.17;;
211;SDS011;16228;48.800;9.002;2022-11-09T10:34:26;2.37;;;1.80;;
211;SDS011;16228;48.800;9.002;2022-11-09T10:37:00;2.17;;;1.37;;
211;SDS011;16228;48.800;9.002;2022-11-09T10:39:37;4.70;;;1.63;;
211;SDS011;16228;48.800;9.002;2022-11-09T10:42:08;3.10;;;2.27;;
211;SDS011;16228;48.800;9.002;2022-11-09T10:44:36;2.47;;;1.53;;
211;SDS011;16228;48.800;9.002;2022-11-09T10:47:05;1.63;;;1.43;;
211;SDS011;16228;48.800;9.002;2022-11-09T10:49:35;2.67;;;1.80;;
211;SDS011;16228;48.800;9.002;2022-11-09T10:52:03;2.80;;;1.70;;
211;SDS011;16228;48.800;9.002;2022-11-09T10:54:32;1.73;;;1.40;;
211;SDS011;16228;48.800;9.002;2022-11-09T10:57:11;1.60;;;1.50;;
211;SDS011;16228;48.800;9.002;2022-11-09T10:59:43;2.93;;;1.90;;
211;SDS011;16228;48.800;9.002;2022-11-09T11:02:37;2.40;;;1.70;;
211;SDS011;16228;48.800;9.002;2022-11-09T11:05:22;1.50;;;1.40;;
211;SDS011;16228;48.800;9.002;2022-11-09T11:10:49;1.73;;;1.63;;
211;SDS011;16228;48.800;9.002;2022-11-09T11:13:20;2.70;;;1.60;;
211;SDS011;16228;48.800;9.002;2022-11-09T11:15:49;2.13;;;1.80;;
211;SDS011;16228;48.800;9.002;2022-11-09T11:18:18;1.97;;;1.77;;
211;SDS011;16228;48.800;9.002;2022-11-09T11:20:49;1.97;;;1.73;;
211;SDS011;16228;48.800;9.002;2022-11-09T11:23:31;2.50;;;1.83;;
211;SDS011;16228;48.800;9.002;2022-11-09T11:28:52;2.80;;;2.07;;
211;SDS011;16228;48.800;9.002;2022-11-09T11:31:24;3.93;;;2.03;;
211;SDS011;16228;48.800;9.002;2022-11-09T11:33:51;2.17;;;1.97;;
211;SDS011;16228;48.800;9.002;2022-11-09T11:36:22;1.70;;;1.60;;
211;SDS011;16228;48.800;9.002;2022-11-09T11:39:00;3.80;;;2.10;;
211;SDS011;16228;48.800;9.002;2022-11-09T11:41:45;2.37;;;1.80;;
211;SDS011;16228;48.800;9.002;2022-11-09T11:44:29;2.73;;;1.60;;
211;SDS011;16228;48.800;9.002;2022-11-09T11:47:07;2.00;;;1.50;;
211;SDS011;16228;48.800;9.002;2022-11-09T11:49:44;4.47;;;1.80;;
211;SDS011;16228;48.800;9.002;2022-11-09T11:52:25;2.90;;;1.80;;
211;SDS011;16228;48.800;9.002;2022-11-09T11:55:09;2.33;;;1.70;;
211;SDS011;16228;48.800;9.002;2022-11-09T11:57:47;2.40;;;1.70;;
211;SDS011;16228;48.800;9.002;2022-11-09T12:00:28;2.13;;;1.80;;
211;SDS011;16228;48.800;9.002;2022-11-09T12:03:05;1.80;;;1.70;;
211;SDS011;16228;48.800;9.002;2022-11-09T12:09:06;2.50;;;2.30;;
211;SDS011;16228;48.800;9.002;2022-11-09T12:11:45;2.27;;;1.77;;
211;SDS011;16228;48.800;9.002;2022-11-09T12:14:26;2.73;;;2.30;;
211;SDS011;16228;48.800;9.002;2022-11-09T12:17:06;2.23;;;1.97;;
211;SDS011;16228;48.800;9.002;2022-11-09T12:19:44;2.23;;;1.90;;
211;SDS011;16228;48.800;9.002;2022-11-09T12:22:37;2.07;;;1.83;;
211;SDS011;16228;48.800;9.002;2022-11-09T12:25:15;5.50;;;2.43;;
211;SDS011;16228;48.800;9.002;2022-11-09T12:27:52;3.80;;;2.53;;
211;SDS011;16228;48.800;9.002;2022-11-09T12:30:51;2.50;;;2.13;;
211;SDS011;16228;48.800;9.002;2022-11-09T12:33:51;2.87;;;1.90;;
211;SDS011;16228;48.800;9.002;2022-11-09T12:36:30;2.37;;;2.17;;
211;SDS011;16228;48.800;9.002;2022-11-09T12:39:04;3.10;;;2.10;;
211;SDS011;16228;48.800;9.002;2022-11-09T12:41:39;3.70;;;1.87;;
211;SDS011;16228;48.800;9.002;2022-11-09T12:44:08;2.30;;;2.03;;
211;SDS011;16228;48.800;9.002;2022-11-09T12:46:41;2.67;;;2.10;;
211;SDS011;16228;48.800;9.002;2022-11-09T12:49:16;3.90;;;1.83;;
211;SDS011;16228;48.800;9.002;2022-11-09T12:51:53;2.33;;;2.10;;
211;SDS011;16228;48.800;9.002;2022-11-09T12:54:22;3.00;;;1.80;;
211;SDS011;16228;48.800;9.002;2022-11-09T12:56:52;2.23;;;1.73;;
211;SDS011;16228;48.800;9.002;2022-11-09T12:59:33;2.73;;;2.30;;
211;SDS011;16228;48.800;9.002;2022-11-09T13:02:02;1.73;;;1.63;;
211;SDS011;16228;48.800;9.002;2022-11-09T13:04:30;2.27;;;1.90;;
211;SDS011;16228;48.800;9.002;2022-11-09T13:07:16;2.93;;;1.73;;
211;SDS011;16228;48.800;9.002;2022-11-09T13:09:53;2.13;;;1.80;;
211;SDS011;16228;48.800;9.002;2022-11-09T13:15:12;1.80;;;1.70;;
211;SDS011;16228;48.800;9.002;2022-11-09T13:17:58;2.23;;;2.03;;
211;SDS011;16228;48.800;9.002;2022-11-09T13:20:46;2.23;;;1.70;;
211;SDS011;16228;48.800;9.002;2022-11-09T13:26:14;2.53;;;2.00;;
211;SDS011;16228;48.800;9.002;2022-11-09T13:34:37;3.43;;;2.00;;
211;SDS011;16228;48.800;9.002;2022-11-09T13:43:11;2.20;;;2.00;;
211;SDS011;16228;48.800;9.002;2022-11-09T13:45:46;2.67;;;2.10;;
211;SDS011;16228;48.800;9.002;2022-11-09T13:51:08;1.60;;;1.50;;
211;SDS011;16228;48.800;9.002;2022-11-09T13:53:51;2.33;;;2.13;;
211;SDS011;16228;48.800;9.002;2022-11-09T13:56:22;3.17;;;2.20;;
211;SDS011;16228;48.800;9.002;2022-11-09T13:58:56;3.70;;;2.87;;
211;SDS011;16228;48.800;9.002;2022-11-09T14:01:34;3.50;;;2.50;;
211;SDS011;16228;48.800;9.002;2022-11-09T14:04:18;3.10;;;1.83;;
211;SDS011;16228;48.800;9.002;2022-11-09T14:06:47;2.43;;;2.23;;
211;SDS011;16228;48.800;9.002;2022-11-09T14:09:15;3.13;;;1.90;;
211;SDS011;16228;48.800;9.002;2022-11-09T14:14:50;2.50;;;1.90;;
211;SDS011;16228;48.800;9.002;2022-11-09T14:17:39;3.47;;;2.07;;
211;SDS011;16228;48.800;9.002;2022-11-09T14:20:16;2.57;;;1.93;;
211;SDS011;16228;48.800;9.002;2022-11-09T14:22:52;2.67;;;2.03;;
211;SDS011;16228;48.800;9.002;2022-11-09T14:25:20;2.87;;;1.90;;
211;SDS011;16228;48.800;9.002;2022-11-09T14:27:50;2.13;;;1.80;;
211;SDS011;16228;48.800;9.002;2022-11-09T14:30:22;4.53;;;3.07;;
211;SDS011;16228;48.800;9.002;2022-11-09T14:32:54;2.83;;;2.40;;
211;SDS011;16228;48.800;9.002;2022-11-09T14:35:23;3.23;;;2.37;;
211;SDS011;16228;48.800;9.002;2022-11-09T14:37:52;3.87;;;2.40;;
211;SDS011;16228;48.800;9.002;2022-11-09T14:40:21;4.70;;;2.37;;
211;SDS011;16228;48.800;9.002;2022-11-09T14:42:51;3.03;;;2.37;;
211;SDS011;16228;48.800;9.002;2022-11-09T14:45:20;2.70;;;2.50;;
211;SDS011;16228;48.800;9.002;2022-11-09T14:47:48;4.13;;;2.50;;
211;SDS011;16228;48.800;9.002;2022-11-09T14:50:20;3.33;;;2.30;;
211;SDS011;16228;48.800;9.002;2022-11-09T14:52:49;5.13;;;2.43;;
211;SDS011;16228;48.800;9.002;2022-11-09T14:55:19;3.10;;;2.27;;
211;SDS011;16228;48.800;9.002;2022-11-09T14:57:47;3.07;;;2.20;;
211;SDS011;16228;48.800;9.002;2022-11-09T15:03:20;3.30;;;2.40;;
211;SDS011;16228;48.800;9.002;2022-11-09T15:05:50;2.53;;;2.10;;
211;SDS011;16228;48.800;9.002;2022-11-09T15:08:29;4.30;;;2.20;;
211;SDS011;16228;48.800;9.002;2022-11-09T15:10:56;2.87;;;2.50;;
211;SDS011;16228;48.800;9.002;2022-11-09T15:13:28;3.17;;;2.00;;
211;SDS011;16228;48.800;9.002;2022-11-09T15:15:57;2.60;;;2.30;;
211;SDS011;16228;48.800;9.002;2022-11-09T15:18:25;3.20;;;2.53;;
211;SDS011;16228;48.800;9.002;2022-11-09T15:21:12;2.83;;;2.17;;
211;SDS011;16228;48.800;9.002;2022-11-09T15:23:41;3.20;;;3.00;;
211;SDS011;16228;48.800;9.002;2022-11-09T15:26:26;2.83;;;2.53;;
211;SDS011;16228;48.800;9.002;2022-11-09T15:29:02;2.40;;;2.07;;
211;SDS011;16228;48.800;9.002;2022-11-09T15:32:02;3.10;;;2.30;;
211;SDS011;16228;48.800;9.002;2022-11-09T15:37:19;3.60;;;2.40;;
211;SDS011;16228;48.800;9.002;2022-11-09T15:39:49;3.07;;;2.40;;
211;SDS011;16228;48.800;9.002;2022-11-09T15:42:16;2.97;;;2.67;;
211;SDS011;16228;48.800;9.002;2022-11-09T15:44:44;4.73;;;2.60;;
211;SDS011;16228;48.800;9.002;2022-11-09T15:47:19;3.67;;;3.20;;
211;SDS011;16228;48.800;9.002;2022-11-09T15:49:49;3.60;;;3.27;;
211;SDS011;16228;48.800;9.002;2022-11-09T15:52:16;3.83;;;2.90;;
211;SDS011;16228;48.800;9.002;2022-11-09T15:54:44;4.07;;;3.27;;
211;SDS011;16228;48.800;9.002;2022-11-09T15:57:13;2.93;;;2.70;;
211;SDS011;16228;48.800;9.002;2022-11-09T15:59:44;4.43;;;3.70;;
211;SDS011;16228;48.800;9.002;2022-11-09T16:02:11;5.97;;;5.33;;
211;SDS011;16228;48.800;9.002;2022-11-09T16:04:39;5.80;;;3.80;;
211;SDS011;16228;48.800;9.002;2022-11-09T16:07:08;3.00;;;2.70;;
211;SDS011;16228;48.800;9.002;2022-11-09T16:09:38;3.50;;;3.00;;
211;SDS011;16228;48.800;9.002;2022-11-09T16:12:08;4.30;;;3.63;;